Time;durP1;ratioP1;P1;durP2;ratioP2;P2;SDS_P1;SDS_P2;PMS_P1;PMS_P2;Temp;Humidity;BMP_temperature;BMP_pressure;BME280_temperature;BME280_humidity;BME280_pressure;Samples;Min_cycle;Max_cycle;Signal;HPM_P1;HPM_P2
2021/10/13 00:00:46;;;;;;;3.22;1.60;;;;;;;;;;4993433;28;20038;-60
2021/10/13 00:03:13;;;;;;;3.03;1.98;;;;;;;;;;4992946;28;20140;-61
2021/10/13 00:05:40;;;;;;;2.72;1.40;;;;;;;;;;4993561;28;20050;-59
2021/10/13 00:08:07;;;;;;;3.33;1.77;;;;;;;;;;4993219;28;20050;-60
2021/10/13 00:10:34;;;;;;;4.30;1.55;;;;;;;;;;4993615;28;20401;-60
2021/10/13 00:13:01;;;;;;;4.10;1.95;;;;;;;;;;4993412;28;20052;-60
2021/10/13 00:15:28;;;;;;;3.38;1.58;;;;;;;;;;4991661;28;20121;-59
2021/10/13 00:17:54;;;;;;;3.50;1.63;;;;;;;;;;4993664;28;20046;-59
2021/10/13 00:20:21;;;;;;;2.85;1.60;;;;;;;;;;5008427;28;20045;-60
2021/10/13 00:22:48;;;;;;;5.32;2.67;;;;;;;;;;4993451;28;20133;-60
2021/10/13 00:25:15;;;;;;;4.20;2.08;;;;;;;;;;4995065;28;20538;-59
2021/10/13 00:27:41;;;;;;;3.85;2.00;;;;;;;;;;4993738;28;20068;-59
2021/10/13 00:30:08;;;;;;;3.90;2.30;;;;;;;;;;4993792;28;20070;-59
2021/10/13 00:32:35;;;;;;;3.92;2.58;;;;;;;;;;5008716;28;20074;-59
2021/10/13 00:35:02;;;;;;;4.32;2.63;;;;;;;;;;4992714;28;20122;-59
2021/10/13 00:37:29;;;;;;;4.13;2.45;;;;;;;;;;4993072;28;20452;-60
2021/10/13 00:39:56;;;;;;;5.63;3.10;;;;;;;;;;5012655;28;20042;-60
2021/10/13 00:42:22;;;;;;;5.53;3.20;;;;;;;;;;5012635;28;20046;-61
2021/10/13 00:44:49;;;;;;;6.72;3.88;;;;;;;;;;5011907;28;20050;-61
2021/10/13 00:47:16;;;;;;;8.05;3.40;;;;;;;;;;5006987;28;20066;-59
2021/10/13 00:49:43;;;;;;;6.35;3.88;;;;;;;;;;4992731;28;20085;-60
2021/10/13 00:52:12;;;;;;;6.75;4.22;;;;;;;;;;4992569;28;20069;-60
2021/10/13 00:54:39;;;;;;;6.50;4.10;;;;;;;;;;4991850;28;20468;-61
2021/10/13 00:57:06;;;;;;;9.55;4.47;;;;;;;;;;5001087;28;20034;-61
2021/10/13 00:59:32;;;;;;;6.65;4.10;;;;;;;;;;5006493;28;20124;-60
2021/10/13 01:02:07;;;;;;;7.35;4.53;;;;;;;;;;5009583;28;20049;-60
2021/10/13 01:04:53;;;;;;;7.47;3.88;;;;;;;;;;5019509;28;20038;-60
2021/10/13 01:07:39;;;;;;;8.43;4.80;;;;;;;;;;5012044;28;20399;-60
2021/10/13 01:10:11;;;;;;;6.82;4.70;;;;;;;;;;5010775;28;20046;-61
2021/10/13 01:12:52;;;;;;;8.25;4.38;;;;;;;;;;5012056;28;20084;-61
2021/10/13 01:15:27;;;;;;;8.18;4.03;;;;;;;;;;5011388;28;20517;-60
2021/10/13 01:18:02;;;;;;;7.28;4.35;;;;;;;;;;5006509;28;20042;-61
2021/10/13 01:20:32;;;;;;;8.75;4.57;;;;;;;;;;4992277;28;20042;-60
2021/10/13 01:23:22;;;;;;;7.90;4.82;;;;;;;;;;4992464;28;20042;-59
2021/10/13 01:25:53;;;;;;;7.60;5.40;;;;;;;;;;4992320;28;20125;-60
2021/10/13 01:28:23;;;;;;;8.38;5.35;;;;;;;;;;4992172;28;20414;-59
2021/10/13 01:30:57;;;;;;;8.63;5.45;;;;;;;;;;5005934;28;20104;-60
2021/10/13 01:33:28;;;;;;;8.40;5.28;;;;;;;;;;5011321;28;20080;-60
2021/10/13 01:35:58;;;;;;;8.23;5.50;;;;;;;;;;5011715;28;20132;-61
2021/10/13 01:38:27;;;;;;;8.35;5.30;;;;;;;;;;5011168;28;20046;-60
2021/10/13 01:40:56;;;;;;;9.02;5.35;;;;;;;;;;5004069;28;20522;-60
2021/10/13 01:43:23;;;;;;;9.23;6.03;;;;;;;;;;5011163;28;20385;-61
2021/10/13 01:45:51;;;;;;;8.43;5.50;;;;;;;;;;5011608;28;20042;-60
2021/10/13 01:48:19;;;;;;;7.70;5.82;;;;;;;;;;5010336;28;20092;-60
2021/10/13 01:50:46;;;;;;;10.73;6.93;;;;;;;;;;5011683;28;20052;-61
2021/10/13 01:53:18;;;;;;;10.57;6.35;;;;;;;;;;5009705;28;20046;-61
2021/10/13 01:55:45;;;;;;;8.73;6.10;;;;;;;;;;4994017;28;20125;-60
2021/10/13 01:58:13;;;;;;;9.18;5.68;;;;;;;;;;4991964;28;20043;-60
2021/10/13 02:00:41;;;;;;;9.00;5.68;;;;;;;;;;5006043;28;20077;-62
2021/10/13 02:03:09;;;;;;;10.20;6.40;;;;;;;;;;4991766;28;20129;-62
2021/10/13 02:05:37;;;;;;;9.23;5.90;;;;;;;;;;4995953;28;20056;-64
2021/10/13 02:08:04;;;;;;;10.23;6.50;;;;;;;;;;4995670;28;20463;-61
2021/10/13 02:10:32;;;;;;;9.35;6.20;;;;;;;;;;4996112;28;20051;-61
2021/10/13 02:12:59;;;;;;;10.45;5.95;;;;;;;;;;4995957;28;20046;-62
2021/10/13 02:15:26;;;;;;;9.98;6.03;;;;;;;;;;4995015;28;20035;-62
2021/10/13 02:17:54;;;;;;;10.70;6.55;;;;;;;;;;4995938;28;20038;-61
2021/10/13 02:20:21;;;;;;;11.15;6.88;;;;;;;;;;4994793;28;20042;-64
2021/10/13 02:22:50;;;;;;;9.68;6.28;;;;;;;;;;4995552;28;20050;-60
2021/10/13 02:25:17;;;;;;;8.77;5.68;;;;;;;;;;4994722;28;20459;-60
2021/10/13 02:27:46;;;;;;;8.85;5.95;;;;;;;;;;4995538;28;20070;-60
2021/10/13 02:30:13;;;;;;;11.23;6.10;;;;;;;;;;5009778;28;20050;-61
2021/10/13 02:32:40;;;;;;;11.85;6.80;;;;;;;;;;4995287;28;20050;-60
2021/10/13 02:35:08;;;;;;;11.73;7.20;;;;;;;;;;4994405;28;20145;-58
2021/10/13 02:37:35;;;;;;;7.47;5.50;;;;;;;;;;4995106;28;20444;-58
2021/10/13 02:40:03;;;;;;;8.10;5.70;;;;;;;;;;5015089;28;20625;-56
2021/10/13 02:42:30;;;;;;;12.25;5.90;;;;;;;;;;4997412;28;20049;-58
2021/10/13 02:44:56;;;;;;;8.88;5.55;;;;;;;;;;5012917;28;20085;-61
2021/10/13 02:47:26;;;;;;;7.75;4.50;;;;;;;;;;5012269;28;20046;-62
2021/10/13 02:49:59;;;;;;;7.65;5.10;;;;;;;;;;4993981;28;20042;-61
2021/10/13 02:52:41;;;;;;;7.97;5.22;;;;;;;;;;5010486;28;20420;-61
2021/10/13 02:55:11;;;;;;;8.60;4.68;;;;;;;;;;4994526;28;20046;-61
2021/10/13 02:57:41;;;;;;;7.43;5.07;;;;;;;;;;5009484;28;20408;-61
2021/10/13 03:00:08;;;;;;;7.80;5.07;;;;;;;;;;4994718;28;20077;-61
2021/10/13 03:02:53;;;;;;;9.25;5.43;;;;;;;;;;4995144;28;20449;-61
2021/10/13 03:05:21;;;;;;;7.05;5.10;;;;;;;;;;4994101;28;20073;-61
2021/10/13 03:07:49;;;;;;;8.07;5.10;;;;;;;;;;4997700;28;20052;-61
2021/10/13 03:10:16;;;;;;;7.18;4.57;;;;;;;;;;4994713;28;20078;-61
2021/10/13 03:12:50;;;;;;;6.60;4.35;;;;;;;;;;4993395;28;20492;-61
2021/10/13 03:15:17;;;;;;;8.38;5.05;;;;;;;;;;4992431;28;20057;-61
2021/10/13 03:17:46;;;;;;;9.18;5.00;;;;;;;;;;4993255;28;20518;-61
2021/10/13 03:20:13;;;;;;;9.00;5.35;;;;;;;;;;4994487;28;20038;-61
2021/10/13 03:22:40;;;;;;;7.20;5.18;;;;;;;;;;5009550;28;20046;-61
2021/10/13 03:25:07;;;;;;;9.07;4.70;;;;;;;;;;5009479;28;20056;-61
2021/10/13 03:27:34;;;;;;;7.50;5.53;;;;;;;;;;5013679;28;20069;-60
2021/10/13 03:30:01;;;;;;;8.27;5.35;;;;;;;;;;5011981;28;20474;-61
2021/10/13 03:32:27;;;;;;;11.82;5.80;;;;;;;;;;5012494;28;20134;-61
2021/10/13 03:34:54;;;;;;;9.60;5.50;;;;;;;;;;5011997;28;20052;-58
2021/10/13 03:37:21;;;;;;;6.93;5.32;;;;;;;;;;5011567;28;20065;-61
2021/10/13 03:39:49;;;;;;;7.50;5.63;;;;;;;;;;5012353;28;20038;-61
2021/10/13 03:42:16;;;;;;;9.65;5.47;;;;;;;;;;5013686;28;20042;-61
2021/10/13 03:44:43;;;;;;;7.88;5.03;;;;;;;;;;5011858;28;20061;-61
2021/10/13 03:47:10;;;;;;;8.82;5.65;;;;;;;;;;4997463;28;20057;-61
2021/10/13 03:49:37;;;;;;;9.38;5.95;;;;;;;;;;5008780;28;20129;-61
2021/10/13 03:52:04;;;;;;;7.90;5.60;;;;;;;;;;4992631;28;20038;-61
2021/10/13 03:54:30;;;;;;;9.18;6.22;;;;;;;;;;4991999;28;20056;-61
2021/10/13 03:56:57;;;;;;;11.90;7.45;;;;;;;;;;5011834;28;20046;-61
2021/10/13 03:59:24;;;;;;;11.07;6.40;;;;;;;;;;5007956;28;20121;-61
2021/10/13 04:01:52;;;;;;;9.70;6.68;;;;;;;;;;4997771;28;20053;-61
2021/10/13 04:04:20;;;;;;;10.23;7.00;;;;;;;;;;5021362;28;20115;-61
2021/10/13 04:06:46;;;;;;;10.05;6.80;;;;;;;;;;5028204;28;20132;-61
2021/10/13 04:09:13;;;;;;;10.40;6.70;;;;;;;;;;4994047;28;20046;-61
2021/10/13 04:11:40;;;;;;;13.98;7.60;;;;;;;;;;4993810;28;20038;-61
2021/10/13 04:14:07;;;;;;;9.82;7.07;;;;;;;;;;4993554;28;20073;-61
2021/10/13 04:16:33;;;;;;;10.40;6.50;;;;;;;;;;4992413;28;20138;-61
2021/10/13 04:19:00;;;;;;;10.80;7.28;;;;;;;;;;4993691;28;20125;-61
2021/10/13 04:21:27;;;;;;;12.27;7.95;;;;;;;;;;4993645;28;20038;-61
2021/10/13 04:23:54;;;;;;;12.88;7.82;;;;;;;;;;4993038;28;20054;-61
2021/10/13 04:26:21;;;;;;;13.45;7.30;;;;;;;;;;4993592;28;20133;-61
2021/10/13 04:28:48;;;;;;;12.23;7.82;;;;;;;;;;4994081;28;20050;-60
2021/10/13 04:31:15;;;;;;;12.88;7.50;;;;;;;;;;5006319;28;20042;-60
2021/10/13 04:33:42;;;;;;;12.07;7.60;;;;;;;;;;4993150;28;20050;-60
2021/10/13 04:36:09;;;;;;;10.80;7.03;;;;;;;;;;4992013;28;20061;-60
2021/10/13 04:38:35;;;;;;;12.38;7.95;;;;;;;;;;4992912;28;20040;-60
2021/10/13 04:41:02;;;;;;;13.32;8.23;;;;;;;;;;5004312;28;20537;-61
2021/10/13 04:43:29;;;;;;;11.02;7.70;;;;;;;;;;5012463;28;20464;-60
2021/10/13 04:45:56;;;;;;;11.50;7.28;;;;;;;;;;5011078;28;20044;-60
2021/10/13 04:48:23;;;;;;;14.43;8.45;;;;;;;;;;5007344;28;20038;-60
2021/10/13 04:50:49;;;;;;;10.98;7.35;;;;;;;;;;5001942;28;20133;-60
2021/10/13 04:53:16;;;;;;;9.30;7.18;;;;;;;;;;5012329;28;20069;-61
2021/10/13 04:55:43;;;;;;;11.05;7.50;;;;;;;;;;5015085;28;20487;-60
2021/10/13 04:58:10;;;;;;;13.85;8.32;;;;;;;;;;5011952;28;20041;-61
2021/10/13 05:00:37;;;;;;;13.02;8.10;;;;;;;;;;5011254;28;20503;-61
2021/10/13 05:03:04;;;;;;;14.15;8.57;;;;;;;;;;5010986;28;20049;-60
2021/10/13 05:05:31;;;;;;;11.05;7.60;;;;;;;;;;5000490;28;20048;-61
2021/10/13 05:07:58;;;;;;;12.73;7.78;;;;;;;;;;5005919;28;20073;-62
2021/10/13 05:10:25;;;;;;;13.80;7.93;;;;;;;;;;5010285;28;20052;-62
2021/10/13 05:12:51;;;;;;;14.05;8.40;;;;;;;;;;5014322;28;20100;-62
2021/10/13 05:15:18;;;;;;;12.43;7.75;;;;;;;;;;4997690;28;20046;-62
2021/10/13 05:17:45;;;;;;;11.30;7.65;;;;;;;;;;4992335;28;20074;-62
2021/10/13 05:20:12;;;;;;;15.13;7.72;;;;;;;;;;4992687;28;20082;-61
2021/10/13 05:22:39;;;;;;;13.55;7.63;;;;;;;;;;5010803;28;20034;-63
2021/10/13 05:25:06;;;;;;;15.73;8.90;;;;;;;;;;5010350;28;20038;-57
2021/10/13 05:27:33;;;;;;;14.40;8.40;;;;;;;;;;5009813;28;20081;-60
2021/10/13 05:30:00;;;;;;;13.10;8.23;;;;;;;;;;5018538;28;20038;-58
2021/10/13 05:32:26;;;;;;;12.38;8.13;;;;;;;;;;4991196;28;20050;-59
2021/10/13 05:34:53;;;;;;;12.57;7.85;;;;;;;;;;4992214;28;20042;-58
2021/10/13 05:37:20;;;;;;;15.50;8.93;;;;;;;;;;5009149;28;20125;-57
2021/10/13 05:39:47;;;;;;;15.68;8.75;;;;;;;;;;5010715;28;20053;-59
2021/10/13 05:42:14;;;;;;;15.95;10.02;;;;;;;;;;5011678;28;20045;-61
2021/10/13 05:44:41;;;;;;;17.08;10.32;;;;;;;;;;5011024;28;20042;-59
2021/10/13 05:47:08;;;;;;;15.32;9.70;;;;;;;;;;5010663;28;20045;-58
2021/10/13 05:49:37;;;;;;;14.70;9.82;;;;;;;;;;5008875;28;20045;-57
2021/10/13 05:52:05;;;;;;;16.85;9.75;;;;;;;;;;5010226;28;20045;-49
2021/10/13 05:54:32;;;;;;;17.02;10.20;;;;;;;;;;5010346;28;20137;-52
2021/10/13 05:56:59;;;;;;;17.25;10.57;;;;;;;;;;5010001;28;20038;-50
2021/10/13 05:59:26;;;;;;;15.43;9.98;;;;;;;;;;5008052;28;20041;-50
2021/10/13 06:01:52;;;;;;;17.50;10.15;;;;;;;;;;5010985;28;20034;-49
2021/10/13 06:04:19;;;;;;;19.23;10.55;;;;;;;;;;5009777;28;20038;-55
2021/10/13 06:06:46;;;;;;;16.02;10.23;;;;;;;;;;5019251;28;20064;-50
2021/10/13 06:09:13;;;;;;;16.90;10.18;;;;;;;;;;5012814;28;20042;-53
2021/10/13 06:11:40;;;;;;;16.88;10.50;;;;;;;;;;5008872;28;20050;-53
2021/10/13 06:14:07;;;;;;;18.55;10.05;;;;;;;;;;5011196;28;20049;-50
2021/10/13 06:16:33;;;;;;;19.00;10.73;;;;;;;;;;5011297;28;20046;-50
2021/10/13 06:19:00;;;;;;;17.60;10.68;;;;;;;;;;5014479;28;20652;-50
2021/10/13 06:21:27;;;;;;;18.48;10.65;;;;;;;;;;5008457;28;20506;-50
2021/10/13 06:23:54;;;;;;;17.80;11.82;;;;;;;;;;5010261;28;20153;-50
2021/10/13 06:26:21;;;;;;;18.20;10.68;;;;;;;;;;5006767;28;20166;-53
2021/10/13 06:28:48;;;;;;;17.13;11.60;;;;;;;;;;5010068;28;20050;-51
2021/10/13 06:31:15;;;;;;;16.55;11.45;;;;;;;;;;5002841;28;20776;-53
2021/10/13 06:33:42;;;;;;;21.50;12.13;;;;;;;;;;5008732;28;20049;-51
2021/10/13 06:36:09;;;;;;;20.13;11.90;;;;;;;;;;5010244;28;20040;-50
2021/10/13 06:38:36;;;;;;;20.58;12.48;;;;;;;;;;5009824;28;20058;-51
2021/10/13 06:41:06;;;;;;;20.92;12.02;;;;;;;;;;5010559;28;20038;-50
2021/10/13 06:43:33;;;;;;;21.00;13.18;;;;;;;;;;5010175;28;20041;-51
2021/10/13 06:46:00;;;;;;;16.17;11.52;;;;;;;;;;5010201;28;20053;-52
2021/10/13 06:48:27;;;;;;;21.42;12.50;;;;;;;;;;5005547;28;20526;-54
2021/10/13 06:50:54;;;;;;;18.05;12.85;;;;;;;;;;5013108;28;20065;-51
2021/10/13 06:53:20;;;;;;;19.70;12.65;;;;;;;;;;5014614;28;20050;-52
2021/10/13 06:55:47;;;;;;;18.73;13.10;;;;;;;;;;5012933;28;20571;-49
2021/10/13 06:58:14;;;;;;;18.10;12.95;;;;;;;;;;5004813;28;20057;-48
2021/10/13 07:00:41;;;;;;;21.55;12.60;;;;;;;;;;5010166;28;20060;-49
2021/10/13 07:03:08;;;;;;;15.65;10.20;;;;;;;;;;5014232;28;20048;-51
2021/10/13 07:05:36;;;;;;;12.80;9.50;;;;;;;;;;5011522;28;20041;-52
2021/10/13 07:08:04;;;;;;;15.48;10.43;;;;;;;;;;5011966;28;21081;-49
2021/10/13 07:10:30;;;;;;;17.25;10.35;;;;;;;;;;5008997;28;20054;-49
2021/10/13 07:12:57;;;;;;;17.98;10.20;;;;;;;;;;5013771;28;20138;-49
2021/10/13 07:15:24;;;;;;;14.63;10.70;;;;;;;;;;5011923;28;20052;-51
2021/10/13 07:17:51;;;;;;;14.85;10.57;;;;;;;;;;5000473;28;20626;-53
2021/10/13 07:20:18;;;;;;;13.20;9.25;;;;;;;;;;5013933;28;20062;-51
2021/10/13 07:22:44;;;;;;;13.52;9.63;;;;;;;;;;5013480;28;20042;-53
2021/10/13 07:25:11;;;;;;;14.27;9.80;;;;;;;;;;5013907;28;20088;-50
2021/10/13 07:27:38;;;;;;;15.57;9.70;;;;;;;;;;5010655;28;20436;-51
2021/10/13 07:30:06;;;;;;;14.98;9.93;;;;;;;;;;5004960;28;20576;-51
2021/10/13 07:32:34;;;;;;;15.55;11.35;;;;;;;;;;5012279;28;20124;-51
2021/10/13 07:35:18;;;;;;;16.58;10.90;;;;;;;;;;5013330;28;20049;-55
2021/10/13 07:37:45;;;;;;;18.40;11.85;;;;;;;;;;5010546;28;20415;-50
2021/10/13 07:40:12;;;;;;;15.82;11.35;;;;;;;;;;5013433;28;20046;-52
2021/10/13 07:42:39;;;;;;;15.60;11.48;;;;;;;;;;5013689;28;20061;-51
2021/10/13 07:45:06;;;;;;;21.70;13.10;;;;;;;;;;5018480;28;20121;-51
2021/10/13 07:47:33;;;;;;;15.38;11.30;;;;;;;;;;5012560;28;20073;-52
2021/10/13 07:50:00;;;;;;;18.63;12.38;;;;;;;;;;5008364;28;20127;-52
2021/10/13 07:52:26;;;;;;;16.98;12.23;;;;;;;;;;5013465;28;20484;-51
2021/10/13 07:54:53;;;;;;;14.35;10.25;;;;;;;;;;5011638;28;20034;-50
2021/10/13 07:57:20;;;;;;;10.77;8.00;;;;;;;;;;5005000;28;20133;-51
2021/10/13 07:59:47;;;;;;;12.88;9.88;;;;;;;;;;5015012;28;20057;-49
2021/10/13 08:02:14;;;;;;;15.15;9.68;;;;;;;;;;5012709;28;20045;-49
2021/10/13 08:04:41;;;;;;;9.70;7.43;;;;;;;;;;5013192;28;20053;-52
2021/10/13 08:07:08;;;;;;;10.27;7.47;;;;;;;;;;5012200;28;20479;-49
2021/10/13 08:09:35;;;;;;;9.30;7.03;;;;;;;;;;5013836;28;20049;-51
2021/10/13 08:12:02;;;;;;;10.98;7.95;;;;;;;;;;5012602;28;20077;-54
2021/10/13 08:14:29;;;;;;;11.43;8.15;;;;;;;;;;5021338;28;20049;-50
2021/10/13 08:16:57;;;;;;;10.65;6.95;;;;;;;;;;4994082;28;20062;-52
2021/10/13 08:19:24;;;;;;;9.93;7.00;;;;;;;;;;5003526;28;20594;-50
2021/10/13 08:21:51;;;;;;;12.48;7.50;;;;;;;;;;5031077;28;20392;-50
2021/10/13 08:24:18;;;;;;;10.88;7.35;;;;;;;;;;5027591;28;20108;-51
2021/10/13 08:26:45;;;;;;;10.45;7.15;;;;;;;;;;5003133;28;20053;-49
2021/10/13 08:29:12;;;;;;;9.02;6.50;;;;;;;;;;5002160;28;20050;-52
2021/10/13 08:31:38;;;;;;;10.35;7.35;;;;;;;;;;5010684;28;20076;-50
2021/10/13 08:34:05;;;;;;;9.68;6.40;;;;;;;;;;5013244;28;20079;-48
2021/10/13 08:36:33;;;;;;;10.35;6.85;;;;;;;;;;5012957;28;20052;-50
2021/10/13 08:38:59;;;;;;;13.73;7.72;;;;;;;;;;4998797;28;20089;-50
2021/10/13 08:41:26;;;;;;;13.43;7.85;;;;;;;;;;5005523;28;20117;-50
2021/10/13 08:43:53;;;;;;;12.43;7.82;;;;;;;;;;5013540;28;20072;-49
2021/10/13 08:46:22;;;;;;;10.48;6.85;;;;;;;;;;5002292;28;20054;-49
2021/10/13 08:48:49;;;;;;;10.75;6.78;;;;;;;;;;5027463;22;20495;-51
2021/10/13 08:51:15;;;;;;;12.80;7.35;;;;;;;;;;5050275;28;20045;-46
2021/10/13 08:53:42;;;;;;;9.43;5.88;;;;;;;;;;5052044;28;20072;-52
2021/10/13 08:56:09;;;;;;;8.38;5.22;;;;;;;;;;5050181;28;20247;-51
2021/10/13 08:58:40;;;;;;;10.55;6.35;;;;;;;;;;5050633;28;20041;-52
2021/10/13 09:01:09;;;;;;;10.77;6.30;;;;;;;;;;5028440;28;20094;-52
2021/10/13 09:03:38;;;;;;;10.65;6.63;;;;;;;;;;5027669;28;20125;-51
2021/10/13 09:06:33;;;;;;;10.50;5.95;;;;;;;;;;5030715;28;20057;-49
2021/10/13 09:09:02;;;;;;;9.20;6.03;;;;;;;;;;5028105;28;20079;-54
2021/10/13 09:11:29;;;;;;;8.82;5.30;;;;;;;;;;5027873;28;20115;-49
2021/10/13 09:14:15;;;;;;;8.57;5.20;;;;;;;;;;5029540;28;20424;-54
2021/10/13 09:17:02;;;;;;;6.85;4.82;;;;;;;;;;5029537;28;20061;-49
2021/10/13 09:19:34;;;;;;;7.60;4.95;;;;;;;;;;5026936;28;20041;-54
2021/10/13 09:22:05;;;;;;;6.70;4.10;;;;;;;;;;5043944;28;20107;-50
2021/10/13 09:24:33;;;;;;;6.22;4.00;;;;;;;;;;5028518;28;20045;-52
2021/10/13 09:27:19;;;;;;;6.82;4.30;;;;;;;;;;5029048;28;20498;-53
2021/10/13 09:29:46;;;;;;;7.32;4.35;;;;;;;;;;5024050;28;20145;-54
2021/10/13 09:32:13;;;;;;;5.65;4.10;;;;;;;;;;5031364;28;20072;-51
2021/10/13 09:34:54;;;;;;;7.88;5.32;;;;;;;;;;5047451;28;20380;-52
2021/10/13 09:37:21;;;;;;;8.70;5.43;;;;;;;;;;5030573;28;20033;-55
2021/10/13 09:40:04;;;;;;;8.27;5.00;;;;;;;;;;5029460;28;20045;-52
2021/10/13 09:42:38;;;;;;;9.10;5.85;;;;;;;;;;5027493;28;20124;-56
2021/10/13 09:45:05;;;;;;;8.48;6.22;;;;;;;;;;5030911;28;20069;-55
2021/10/13 09:47:34;;;;;;;9.50;5.95;;;;;;;;;;5026495;28;20049;-53
2021/10/13 09:50:11;;;;;;;9.40;6.35;;;;;;;;;;5031505;28;20115;-57
2021/10/13 09:52:38;;;;;;;11.43;6.28;;;;;;;;;;5011666;28;20152;-55
2021/10/13 09:55:09;;;;;;;8.85;4.85;;;;;;;;;;5029188;28;20782;-56
2021/10/13 09:57:43;;;;;;;8.93;5.63;;;;;;;;;;5029148;28;20045;-54
2021/10/13 10:00:12;;;;;;;8.07;6.28;;;;;;;;;;5028019;28;20080;-53
2021/10/13 10:02:44;;;;;;;8.05;5.90;;;;;;;;;;5030295;28;20052;-57
2021/10/13 10:05:13;;;;;;;9.45;4.97;;;;;;;;;;5029567;28;20037;-56
2021/10/13 10:07:43;;;;;;;6.93;4.80;;;;;;;;;;5029904;28;20541;-52
2021/10/13 10:10:18;;;;;;;6.43;4.57;;;;;;;;;;5029745;28;20050;-53
2021/10/13 10:13:00;;;;;;;7.57;5.47;;;;;;;;;;5030564;28;20057;-55
2021/10/13 10:15:39;;;;;;;8.02;4.95;;;;;;;;;;5029789;28;20088;-56
2021/10/13 10:18:26;;;;;;;7.38;4.80;;;;;;;;;;5029485;28;20125;-56
2021/10/13 10:20:54;;;;;;;6.07;3.63;;;;;;;;;;5030915;28;20037;-55
2021/10/13 10:23:25;;;;;;;6.85;4.45;;;;;;;;;;5027371;28;20042;-54
2021/10/13 10:25:53;;;;;;;5.90;4.20;;;;;;;;;;5030574;28;20499;-58
2021/10/13 10:28:38;;;;;;;7.68;4.68;;;;;;;;;;5033899;28;20136;-54
2021/10/13 10:31:24;;;;;;;6.38;4.20;;;;;;;;;;5032711;28;20057;-57
2021/10/13 10:33:51;;;;;;;7.30;4.13;;;;;;;;;;5033899;28;20445;-49
2021/10/13 10:36:18;;;;;;;6.07;4.07;;;;;;;;;;5031635;28;20073;-49
2021/10/13 10:38:45;;;;;;;6.20;4.60;;;;;;;;;;5033738;28;20444;-49
2021/10/13 10:41:12;;;;;;;6.95;4.97;;;;;;;;;;5033888;28;20516;-51
2021/10/13 10:43:39;;;;;;;8.80;4.43;;;;;;;;;;5032782;28;20076;-47
2021/10/13 10:46:06;;;;;;;6.75;4.00;;;;;;;;;;5033173;28;20117;-52
2021/10/13 10:48:43;;;;;;;7.57;4.53;;;;;;;;;;5033870;28;20437;-51
2021/10/13 10:51:10;;;;;;;9.25;4.95;;;;;;;;;;5032663;28;20115;-52
2021/10/13 10:53:38;;;;;;;8.32;4.40;;;;;;;;;;5032195;28;20069;-53
2021/10/13 10:56:25;;;;;;;7.53;4.18;;;;;;;;;;5029698;28;20095;-49
2021/10/13 10:58:56;;;;;;;6.90;4.53;;;;;;;;;;5029283;28;20117;-51
2021/10/13 11:01:23;;;;;;;7.00;4.93;;;;;;;;;;5030887;28;20124;-50
2021/10/13 11:03:50;;;;;;;7.10;4.75;;;;;;;;;;5053008;28;20137;-53
2021/10/13 11:06:18;;;;;;;7.68;4.60;;;;;;;;;;5034410;28;20044;-53
2021/10/13 11:08:49;;;;;;;7.65;4.60;;;;;;;;;;5030732;28;20147;-54
2021/10/13 11:11:16;;;;;;;7.03;4.40;;;;;;;;;;5029564;28;20084;-53
2021/10/13 11:14:04;;;;;;;7.18;4.65;;;;;;;;;;5032185;28;20053;-54
2021/10/13 11:16:34;;;;;;;6.28;4.15;;;;;;;;;;5028592;28;20062;-53
2021/10/13 11:19:05;;;;;;;4.55;3.20;;;;;;;;;;5027547;28;20432;-55
2021/10/13 11:21:32;;;;;;;3.83;2.63;;;;;;;;;;5033311;28;20136;-50
2021/10/13 11:23:58;;;;;;;6.45;3.15;;;;;;;;;;5031229;28;20045;-51
2021/10/13 11:26:26;;;;;;;4.63;2.92;;;;;;;;;;5031846;28;20055;-52
2021/10/13 11:28:53;;;;;;;5.35;3.15;;;;;;;;;;5030279;28;20120;-55
2021/10/13 11:31:20;;;;;;;8.63;3.78;;;;;;;;;;5033239;28;20475;-56
2021/10/13 11:33:47;;;;;;;5.93;2.97;;;;;;;;;;5024867;28;20038;-51
2021/10/13 11:36:14;;;;;;;5.93;3.38;;;;;;;;;;5030742;28;20411;-55
2021/10/13 11:38:41;;;;;;;6.40;3.90;;;;;;;;;;5037637;28;20048;-54
2021/10/13 11:41:10;;;;;;;4.32;3.25;;;;;;;;;;5038676;28;20103;-55
2021/10/13 11:43:37;;;;;;;6.03;4.15;;;;;;;;;;5034061;28;20179;-52
2021/10/13 11:46:04;;;;;;;6.38;3.42;;;;;;;;;;5030791;28;20569;-56
2021/10/13 11:48:32;;;;;;;3.67;2.45;;;;;;;;;;5031433;28;20044;-57
2021/10/13 11:51:01;;;;;;;5.82;2.78;;;;;;;;;;5033325;28;20041;-58
2021/10/13 11:53:28;;;;;;;4.97;2.58;;;;;;;;;;5033416;28;20045;-53
2021/10/13 11:55:55;;;;;;;5.38;2.30;;;;;;;;;;5015960;28;20530;-54
2021/10/13 11:58:26;;;;;;;2.92;1.92;;;;;;;;;;5019886;28;20038;-56
2021/10/13 12:00:53;;;;;;;5.00;1.80;;;;;;;;;;5013462;28;20125;-56
2021/10/13 12:03:30;;;;;;;4.75;1.42;;;;;;;;;;5015664;28;20046;-57
2021/10/13 12:05:58;;;;;;;2.78;1.35;;;;;;;;;;5036737;28;20049;-56
2021/10/13 12:08:25;;;;;;;2.50;1.52;;;;;;;;;;5031991;28;20049;-55
2021/10/13 12:10:53;;;;;;;4.32;1.58;;;;;;;;;;5030506;28;20092;-55
2021/10/13 12:13:20;;;;;;;3.38;1.98;;;;;;;;;;5030041;28;20045;-57
2021/10/13 12:15:47;;;;;;;3.05;1.70;;;;;;;;;;5048986;28;20103;-57
2021/10/13 12:18:17;;;;;;;2.67;2.00;;;;;;;;;;5033780;28;20041;-52
2021/10/13 12:20:51;;;;;;;3.40;1.83;;;;;;;;;;5033001;28;20050;-56
2021/10/13 12:23:19;;;;;;;5.38;1.80;;;;;;;;;;5031520;28;20042;-56
2021/10/13 12:25:46;;;;;;;3.92;2.58;;;;;;;;;;5036116;28;20376;-55
2021/10/13 12:28:24;;;;;;;3.28;2.30;;;;;;;;;;5037033;28;20041;-58
2021/10/13 12:31:04;;;;;;;4.47;2.35;;;;;;;;;;5031183;28;20120;-58
2021/10/13 12:33:42;;;;;;;4.85;2.20;;;;;;;;;;5034406;28;20064;-55
2021/10/13 12:36:16;;;;;;;3.80;2.50;;;;;;;;;;5034929;28;20556;-56
2021/10/13 12:38:53;;;;;;;4.28;2.20;;;;;;;;;;5033128;28;20117;-59
2021/10/13 12:41:20;;;;;;;3.67;2.22;;;;;;;;;;5034099;28;20092;-57
2021/10/13 12:43:48;;;;;;;6.80;2.78;;;;;;;;;;5034093;28;20491;-58
2021/10/13 12:46:29;;;;;;;3.65;2.53;;;;;;;;;;5021153;28;20069;-55
2021/10/13 12:48:57;;;;;;;4.05;2.53;;;;;;;;;;5035608;28;20045;-55
2021/10/13 12:52:00;;;;;;;4.72;2.78;;;;;;;;;;5033494;28;20061;-57
2021/10/13 12:54:28;;;;;;;4.07;2.65;;;;;;;;;;5018893;28;20100;-57
2021/10/13 12:56:56;;;;;;;4.57;2.65;;;;;;;;;;5036597;28;20057;-56
2021/10/13 12:59:23;;;;;;;5.47;2.65;;;;;;;;;;5034558;28;20460;-53
2021/10/13 13:01:50;;;;;;;3.22;2.10;;;;;;;;;;5034383;28;20076;-53
2021/10/13 13:04:17;;;;;;;4.22;1.90;;;;;;;;;;5032903;28;20046;-52
2021/10/13 13:06:44;;;;;;;4.13;2.10;;;;;;;;;;5036563;28;20038;-55
2021/10/13 13:09:11;;;;;;;3.72;2.00;;;;;;;;;;5033647;28;20470;-56
2021/10/13 13:11:38;;;;;;;2.90;1.75;;;;;;;;;;5034459;28;20108;-56
2021/10/13 13:14:05;;;;;;;3.20;1.63;;;;;;;;;;5033390;28;20533;-57
2021/10/13 13:16:35;;;;;;;2.60;1.75;;;;;;;;;;5040824;28;20041;-57
2021/10/13 13:19:03;;;;;;;4.22;2.10;;;;;;;;;;5016832;28;20054;-57
2021/10/13 13:21:29;;;;;;;3.58;1.95;;;;;;;;;;5016392;28;20050;-57
2021/10/13 13:23:56;;;;;;;4.60;2.40;;;;;;;;;;5027485;28;20076;-57
2021/10/13 13:26:23;;;;;;;6.57;2.30;;;;;;;;;;5015556;28;20046;-55
2021/10/13 13:28:50;;;;;;;4.18;1.83;;;;;;;;;;5034587;28;20042;-55
2021/10/13 13:31:17;;;;;;;5.75;2.05;;;;;;;;;;5031121;28;20045;-54
2021/10/13 13:33:44;;;;;;;4.35;1.23;;;;;;;;;;5030449;28;20045;-50
2021/10/13 13:36:13;;;;;;;3.10;1.30;;;;;;;;;;5031018;28;20073;-50
2021/10/13 13:38:40;;;;;;;2.80;1.35;;;;;;;;;;5029759;28;20045;-50
2021/10/13 13:41:06;;;;;;;1.98;1.00;;;;;;;;;;5031132;28;20072;-50
2021/10/13 13:43:33;;;;;;;1.52;1.13;;;;;;;;;;5030291;28;20045;-51
2021/10/13 13:46:00;;;;;;;2.25;0.93;;;;;;;;;;5029606;28;20418;-52
2021/10/13 13:48:28;;;;;;;3.13;1.10;;;;;;;;;;5029700;28;20041;-49
2021/10/13 13:50:56;;;;;;;1.95;1.13;;;;;;;;;;5030860;28;20073;-51
2021/10/13 13:53:24;;;;;;;2.72;1.20;;;;;;;;;;5030074;28;20076;-53
2021/10/13 13:55:51;;;;;;;2.65;1.17;;;;;;;;;;5029526;28;20128;-54
2021/10/13 13:58:18;;;;;;;3.08;1.30;;;;;;;;;;5030371;28;20042;-50
2021/10/13 14:00:45;;;;;;;3.28;1.45;;;;;;;;;;5032067;28;20037;-48
2021/10/13 14:03:12;;;;;;;3.78;1.50;;;;;;;;;;5034269;28;20092;-51
2021/10/13 14:05:39;;;;;;;2.40;1.50;;;;;;;;;;5034791;28;20049;-52
2021/10/13 14:08:07;;;;;;;3.67;1.90;;;;;;;;;;5034447;28;20050;-49
2021/10/13 14:10:47;;;;;;;2.88;1.60;;;;;;;;;;5033417;28;20152;-51
2021/10/13 14:13:14;;;;;;;4.18;1.88;;;;;;;;;;5034128;28;20100;-55
2021/10/13 14:15:41;;;;;;;3.28;2.13;;;;;;;;;;5036854;28;20407;-54
2021/10/13 14:18:09;;;;;;;4.55;1.83;;;;;;;;;;5039663;28;20049;-56
2021/10/13 14:20:35;;;;;;;3.03;1.90;;;;;;;;;;5038953;28;20048;-54
2021/10/13 14:23:02;;;;;;;3.63;1.83;;;;;;;;;;5040652;28;20430;-52
2021/10/13 14:25:29;;;;;;;3.35;2.00;;;;;;;;;;5036089;28;20042;-55
2021/10/13 14:27:56;;;;;;;3.20;1.90;;;;;;;;;;5041647;28;20068;-55
2021/10/13 14:30:23;;;;;;;3.45;1.73;;;;;;;;;;5037318;28;20128;-57
2021/10/13 14:32:49;;;;;;;3.63;1.83;;;;;;;;;;5038983;28;20077;-52
2021/10/13 14:35:16;;;;;;;3.70;1.40;;;;;;;;;;5037740;28;20487;-56
2021/10/13 14:37:43;;;;;;;2.70;1.20;;;;;;;;;;5040216;28;20069;-56
2021/10/13 14:40:12;;;;;;;1.80;1.13;;;;;;;;;;5038443;28;20042;-52
2021/10/13 14:42:40;;;;;;;4.05;0.80;;;;;;;;;;5038196;28;20052;-54
2021/10/13 14:45:13;;;;;;;1.33;0.70;;;;;;;;;;5036768;28;20061;-55